Time;durP1;ratioP1;P1;durP2;ratioP2;P2;SDS_P1;SDS_P2;PMS_P1;PMS_P2;Temp;Humidity;BMP_temperature;BMP_pressure;BME280_temperature;BME280_humidity;BME280_pressure;Samples;Min_cycle;Max_cycle;Signal;HPM_P1;HPM_P2
2021/12/10 00:00:00;;;;;;;5.20;1.60;;;-0.50;89.80;;;;;;2212540;64;20089;-32
2021/12/10 00:02:33;;;;;;;6.13;1.80;;;-0.50;90.20;;;;;;2208202;64;20545;-34
2021/12/10 00:05:01;;;;;;;2.97;1.10;;;-0.50;90.30;;;;;;2208146;64;20603;-31
2021/12/10 00:07:28;;;;;;;4.47;1.87;;;-0.50;90.60;;;;;;2208223;64;20156;-34
2021/12/10 00:09:58;;;;;;;3.67;0.90;;;-0.60;90.50;;;;;;2208294;64;20115;-32
2021/12/10 00:12:35;;;;;;;0.57;0.33;;;-0.50;90.30;;;;;;2208266;64;20145;-32
2021/12/10 00:15:02;;;;;;;7.67;1.20;;;-0.60;90.60;;;;;;2211638;64;20143;-32
2021/12/10 00:17:29;;;;;;;4.10;1.70;;;-0.60;90.20;;;;;;2208127;64;20475;-32
2021/12/10 00:19:57;;;;;;;4.17;1.40;;;-0.60;90.20;;;;;;2211655;64;20164;-31
2021/12/10 00:22:27;;;;;;;3.23;1.40;;;-0.60;90.20;;;;;;2208427;64;20102;-33
2021/12/10 00:24:54;;;;;;;4.10;1.37;;;-0.60;90.10;;;;;;2208411;64;20115;-32
2021/12/10 00:27:28;;;;;;;6.50;2.20;;;-0.60;90.10;;;;;;2208301;64;20216;-32
2021/12/10 00:30:03;;;;;;;3.73;0.80;;;-0.70;90.20;;;;;;2205478;64;20094;-33
2021/12/10 00:32:34;;;;;;;0.60;0.37;;;-0.70;90.40;;;;;;2208631;64;20600;-31
2021/12/10 00:35:03;;;;;;;2.90;0.90;;;-0.70;90.80;;;;;;2216251;64;20512;-30
2021/12/10 00:37:30;;;;;;;3.60;1.43;;;-0.80;91.10;;;;;;2216475;64;20081;-32
2021/12/10 00:39:57;;;;;;;4.60;1.20;;;-0.80;91.40;;;;;;2216440;64;20092;-31
2021/12/10 00:42:27;;;;;;;1.13;0.53;;;-0.80;91.60;;;;;;2216394;64;20092;-31
2021/12/10 00:44:54;;;;;;;4.87;1.60;;;-0.90;91.50;;;;;;2213286;64;20557;-31
2021/12/10 00:47:23;;;;;;;3.87;1.17;;;-0.90;91.20;;;;;;2214834;64;20085;-32
2021/12/10 00:49:51;;;;;;;6.63;1.30;;;-0.90;91.30;;;;;;2220271;64;20088;-30
2021/12/10 00:52:17;;;;;;;5.20;1.60;;;-0.90;91.50;;;;;;2220204;64;20093;-31
2021/12/10 00:54:44;;;;;;;2.70;1.63;;;-0.90;91.50;;;;;;2220217;64;20103;-32
2021/12/10 00:57:10;;;;;;;4.77;1.80;;;-0.90;91.20;;;;;;2216856;64;20552;-31
2021/12/10 00:59:37;;;;;;;2.17;1.07;;;-0.90;91.50;;;;;;2220030;64;20618;-33
2021/12/10 01:02:06;;;;;;;6.10;2.43;;;-0.90;91.80;;;;;;2219871;64;20096;-32
2021/12/10 01:04:34;;;;;;;6.47;3.27;;;-1.00;92.70;;;;;;2219740;64;20634;-31
2021/12/10 01:07:03;;;;;;;5.47;2.47;;;-1.10;93.20;;;;;;2219821;64;20552;-32
2021/12/10 01:09:38;;;;;;;6.13;3.50;;;-1.10;93.50;;;;;;2220147;64;20108;-45
2021/12/10 01:12:17;;;;;;;7.13;2.33;;;-1.10;93.50;;;;;;2220156;64;20110;-31
2021/12/10 01:26:09;;;;;;;8.32;3.28;;;-1.10;94.40;;;;;;2211902;64;20069;-31
2021/12/10 01:28:37;;;;;;;7.67;3.43;;;-1.10;94.10;;;;;;2212003;64;20099;-34
2021/12/10 01:31:04;;;;;;;10.43;2.47;;;-1.10;94.00;;;;;;2211826;64;20211;-32
2021/12/10 01:33:30;;;;;;;9.83;3.93;;;-1.10;93.80;;;;;;2211905;64;20081;-36
2021/12/10 01:35:59;;;;;;;8.63;3.93;;;-1.10;93.80;;;;;;2211872;64;20423;-32
2021/12/10 01:38:26;;;;;;;8.60;3.80;;;-1.10;93.70;;;;;;2211825;64;20166;-32
2021/12/10 01:40:58;;;;;;;9.13;4.37;;;-1.00;93.20;;;;;;2203322;65;20109;-30
2021/12/10 01:43:25;;;;;;;7.57;3.03;;;-1.10;93.00;;;;;;2200199;65;20184;-36
2021/12/10 01:45:54;;;;;;;15.67;4.50;;;-1.10;93.00;;;;;;2192002;65;20111;-32
2021/12/10 01:48:27;;;;;;;7.37;2.10;;;-1.00;92.60;;;;;;2195450;65;20598;-32
2021/12/10 01:50:54;;;;;;;4.03;2.07;;;-1.10;92.90;;;;;;2203450;65;20657;-33
2021/12/10 01:53:22;;;;;;;9.70;4.27;;;-1.10;93.10;;;;;;2203562;65;20102;-31
2021/12/10 01:55:50;;;;;;;10.33;3.43;;;-1.20;93.10;;;;;;2203411;65;20189;-36
2021/12/10 01:58:19;;;;;;;5.37;3.03;;;-1.10;93.30;;;;;;2203581;65;20109;-32
2021/12/10 02:01:00;;;;;;;7.33;4.30;;;-1.20;92.80;;;;;;2203356;65;20109;-31
2021/12/10 02:03:26;;;;;;;8.67;3.23;;;-1.10;92.50;;;;;;2203669;65;20079;-31
2021/12/10 02:05:53;;;;;;;8.33;3.43;;;-1.20;92.70;;;;;;2203438;65;20566;-35
2021/12/10 02:08:20;;;;;;;8.03;2.97;;;-1.10;92.90;;;;;;2203638;65;20157;-34
2021/12/10 02:10:48;;;;;;;5.87;2.47;;;-1.10;93.10;;;;;;2200317;65;20086;-31
2021/12/10 02:13:15;;;;;;;9.93;3.90;;;-1.10;92.90;;;;;;2204131;64;20719;-31
2021/12/10 02:15:42;;;;;;;6.40;3.63;;;-1.20;93.10;;;;;;2204029;64;20204;-32
2021/12/10 02:18:09;;;;;;;9.83;3.60;;;-1.20;93.20;;;;;;2219618;64;20161;-35
2021/12/10 02:20:46;;;;;;;8.87;3.80;;;-1.30;93.20;;;;;;2216746;64;20646;-31
2021/12/10 02:23:13;;;;;;;8.23;3.90;;;-1.30;92.90;;;;;;2219874;64;20152;-30
2021/12/10 02:25:39;;;;;;;7.63;3.70;;;-1.30;93.20;;;;;;2219765;64;20101;-31
2021/12/10 02:28:08;;;;;;;13.83;3.80;;;-1.30;93.30;;;;;;2216698;64;20172;-30
2021/12/10 02:30:35;;;;;;;7.33;4.03;;;-1.30;93.40;;;;;;2216711;64;20093;-34
2021/12/10 02:33:01;;;;;;;9.80;3.03;;;-1.30;93.30;;;;;;2213547;64;20167;-33
2021/12/10 02:35:28;;;;;;;7.50;3.50;;;-1.30;93.70;;;;;;2213555;64;20564;-31
2021/12/10 02:37:55;;;;;;;7.10;3.67;;;-1.40;94.20;;;;;;2216694;64;20093;-31
2021/12/10 02:40:22;;;;;;;8.70;4.40;;;-1.40;94.40;;;;;;2219775;64;20217;-31
2021/12/10 02:42:48;;;;;;;10.37;4.17;;;-1.50;94.20;;;;;;2216539;64;20085;-36
2021/12/10 02:45:16;;;;;;;9.23;3.90;;;-1.40;94.00;;;;;;2216619;64;20470;-31
2021/12/10 02:47:43;;;;;;;6.10;3.43;;;-1.40;93.70;;;;;;2218862;64;20145;-31
2021/12/10 02:50:10;;;;;;;5.10;2.63;;;-1.40;93.70;;;;;;2220554;64;20579;-32
2021/12/10 02:52:37;;;;;;;10.67;3.97;;;-1.40;93.90;;;;;;2220378;64;20540;-32
2021/12/10 02:55:05;;;;;;;8.27;4.10;;;-1.50;94.00;;;;;;2216863;64;20146;-30
2021/12/10 02:57:32;;;;;;;11.67;4.43;;;-1.50;94.20;;;;;;2220132;64;21180;-33
2021/12/10 02:59:58;;;;;;;9.27;4.20;;;-1.50;94.30;;;;;;2219994;64;20453;-37
2021/12/10 03:02:26;;;;;;;9.07;3.57;;;-1.50;94.40;;;;;;2220176;64;20088;-33
2021/12/10 03:04:53;;;;;;;9.43;4.40;;;-1.50;94.40;;;;;;2219798;64;20119;-42
2021/12/10 03:07:21;;;;;;;8.73;4.80;;;-1.50;94.40;;;;;;2220044;64;20615;-41
2021/12/10 03:09:49;;;;;;;14.53;5.23;;;-1.50;94.00;;;;;;2220020;64;20175;-32
2021/12/10 03:12:17;;;;;;;11.27;5.00;;;-1.50;94.30;;;;;;2220057;64;20103;-32
2021/12/10 03:14:46;;;;;;;9.87;4.30;;;-1.50;94.20;;;;;;2220078;64;20160;-30
2021/12/10 03:17:18;;;;;;;10.07;5.10;;;-1.40;94.20;;;;;;2219849;64;20093;-31
2021/12/10 03:19:45;;;;;;;11.07;4.37;;;-1.40;94.10;;;;;;2220196;64;20160;-32
2021/12/10 03:22:12;;;;;;;12.67;4.50;;;-1.50;94.20;;;;;;2220168;64;20143;-33
2021/12/10 03:24:38;;;;;;;12.17;4.70;;;-1.50;94.10;;;;;;2219758;64;20084;-43
2021/12/10 03:27:06;;;;;;;11.23;5.13;;;-1.40;94.00;;;;;;2220078;64;20152;-34
2021/12/10 03:29:35;;;;;;;12.80;6.60;;;-1.40;93.80;;;;;;2220226;64;20077;-33
2021/12/10 03:32:04;;;;;;;9.87;5.53;;;-1.40;93.40;;;;;;2220428;64;20148;-33
2021/12/10 03:34:31;;;;;;;18.83;5.80;;;-1.40;93.40;;;;;;2220398;64;20472;-32
2021/12/10 03:36:58;;;;;;;18.97;7.37;;;-1.40;93.60;;;;;;2220368;64;20089;-34
2021/12/10 03:39:25;;;;;;;19.83;6.97;;;-1.40;93.80;;;;;;2220312;64;20178;-32
2021/12/10 03:41:53;;;;;;;18.77;7.97;;;-1.40;93.90;;;;;;2220220;64;20088;-32
2021/12/10 03:44:20;;;;;;;20.97;8.10;;;-1.40;94.00;;;;;;2220142;64;20631;-32
2021/12/10 03:46:47;;;;;;;21.60;7.83;;;-1.40;94.40;;;;;;2219675;64;20089;-35
2021/12/10 03:49:13;;;;;;;29.07;10.07;;;-1.40;94.30;;;;;;2216450;64;20603;-32
2021/12/10 03:51:40;;;;;;;20.33;8.30;;;-1.40;94.20;;;;;;2216595;64;20093;-33
2021/12/10 03:54:07;;;;;;;25.20;10.37;;;-1.40;94.40;;;;;;2216497;64;20138;-32
2021/12/10 03:56:34;;;;;;;16.13;6.47;;;-1.50;94.50;;;;;;2219540;64;20116;-35
2021/12/10 03:59:04;;;;;;;31.23;11.50;;;-1.40;94.60;;;;;;2216330;64;20166;-33
2021/12/10 04:01:33;;;;;;;18.77;7.60;;;-1.30;94.50;;;;;;2204296;64;20157;-33
2021/12/10 04:04:00;;;;;;;34.13;14.70;;;-1.30;94.60;;;;;;2204408;64;20540;-33
2021/12/10 04:06:27;;;;;;;24.80;10.10;;;-1.30;94.60;;;;;;2204379;64;20108;-40
2021/12/10 04:08:54;;;;;;;26.73;10.53;;;-1.30;94.60;;;;;;2204363;64;20108;-39
2021/12/10 04:11:21;;;;;;;32.63;10.50;;;-1.20;94.60;;;;;;2204266;64;20094;-35
2021/12/10 04:13:48;;;;;;;31.40;11.60;;;-1.20;94.60;;;;;;2204415;64;20483;-34
2021/12/10 04:16:16;;;;;;;21.93;10.50;;;-1.20;94.60;;;;;;2204435;64;20168;-36
2021/12/10 04:18:44;;;;;;;28.57;9.37;;;-1.10;94.50;;;;;;2204435;64;20204;-31
2021/12/10 04:21:12;;;;;;;27.03;10.53;;;-1.10;94.60;;;;;;2204369;64;20090;-52
2021/12/10 04:23:41;;;;;;;27.00;8.97;;;-1.10;94.50;;;;;;2204465;64;20086;-34
2021/12/10 04:26:09;;;;;;;26.53;10.00;;;-1.20;94.40;;;;;;2204576;64;20187;-32
2021/12/10 04:28:36;;;;;;;21.33;8.67;;;-1.20;94.40;;;;;;2204390;64;20086;-33
2021/12/10 04:31:03;;;;;;;16.60;6.10;;;-1.30;94.30;;;;;;2204431;64;20701;-44
2021/12/10 04:33:29;;;;;;;16.50;5.47;;;-1.30;94.40;;;;;;2214444;64;20107;-32
2021/12/10 04:35:58;;;;;;;13.37;6.40;;;-1.30;94.30;;;;;;2216391;64;20085;-33
2021/12/10 04:38:25;;;;;;;14.40;6.00;;;-1.30;94.10;;;;;;2216398;64;20151;-33
2021/12/10 04:40:53;;;;;;;14.40;6.57;;;-1.40;94.20;;;;;;2216316;64;20088;-33
2021/12/10 04:43:20;;;;;;;20.60;8.27;;;-1.40;94.10;;;;;;2216120;64;20097;-35
2021/12/10 04:45:46;;;;;;;15.40;6.97;;;-1.40;94.20;;;;;;2216166;64;20112;-33
2021/12/10 04:48:13;;;;;;;13.87;5.13;;;-1.40;94.30;;;;;;2216216;64;20073;-33
2021/12/10 04:50:39;;;;;;;15.97;6.83;;;-1.30;94.30;;;;;;2219695;64;20085;-32
2021/12/10 04:53:07;;;;;;;17.73;7.03;;;-1.30;94.30;;;;;;2216051;64;20151;-33
2021/12/10 04:55:34;;;;;;;15.77;7.37;;;-1.30;94.40;;;;;;2215942;64;20119;-34
2021/12/10 04:58:00;;;;;;;20.00;5.97;;;-1.40;94.60;;;;;;2215953;64;20093;-32
2021/12/10 05:00:29;;;;;;;16.17;6.37;;;-1.40;94.60;;;;;;2219098;64;20529;-38
2021/12/10 05:02:56;;;;;;;14.60;5.40;;;-1.40;94.70;;;;;;2211062;64;20105;-33
2021/12/10 05:05:23;;;;;;;11.27;4.17;;;-1.30;94.90;;;;;;2207877;64;20104;-32
2021/12/10 05:07:49;;;;;;;23.73;3.47;;;-1.30;94.80;;;;;;2207943;64;20097;-33
2021/12/10 05:10:17;;;;;;;15.57;7.13;;;-1.30;94.90;;;;;;2208053;64;20161;-37
2021/12/10 05:12:43;;;;;;;18.77;7.60;;;-1.40;95.10;;;;;;2211086;64;20175;-51
2021/12/10 05:15:13;;;;;;;11.43;5.67;;;-1.40;95.10;;;;;;2211447;64;20101;-34
2021/12/10 05:17:40;;;;;;;16.80;7.07;;;-1.30;95.10;;;;;;2208199;64;20596;-32
2021/12/10 05:20:14;;;;;;;12.17;4.67;;;-1.30;95.20;;;;;;2208047;64;20137;-31
2021/12/10 05:22:42;;;;;;;13.45;5.88;;;-1.40;95.30;;;;;;2208159;64;20081;-34
2021/12/10 05:25:09;;;;;;;19.53;8.17;;;-1.40;95.20;;;;;;2208084;64;20093;-32
2021/12/10 05:27:36;;;;;;;18.17;7.83;;;-1.40;95.30;;;;;;2207926;64;20108;-38
2021/12/10 05:30:04;;;;;;;19.70;7.50;;;-1.40;95.40;;;;;;2208023;64;20572;-32
2021/12/10 05:32:30;;;;;;;16.00;6.40;;;-1.40;95.30;;;;;;2200268;65;20124;-35
2021/12/10 05:34:57;;;;;;;20.33;9.67;;;-1.40;95.20;;;;;;2206962;64;20148;-32
2021/12/10 05:37:23;;;;;;;19.53;7.87;;;-1.40;95.20;;;;;;2203418;65;20099;-33
2021/12/10 05:39:50;;;;;;;20.70;9.87;;;-1.30;95.20;;;;;;2200368;65;20165;-35
2021/12/10 05:42:17;;;;;;;21.40;10.20;;;-1.30;95.00;;;;;;2200332;65;20090;-33
2021/12/10 05:44:43;;;;;;;18.80;9.00;;;-1.40;95.20;;;;;;2200134;65;20265;-32
2021/12/10 05:47:10;;;;;;;17.47;8.57;;;-1.30;95.30;;;;;;2201118;65;20478;-32
2021/12/10 05:49:36;;;;;;;15.67;6.20;;;-1.30;95.30;;;;;;2203352;65;20112;-32
2021/12/10 05:52:04;;;;;;;23.63;9.03;;;-1.20;95.30;;;;;;2203529;65;20090;-34
2021/12/10 05:54:30;;;;;;;22.83;9.93;;;-1.30;95.20;;;;;;2203540;65;20149;-33
2021/12/10 05:56:57;;;;;;;21.50;8.83;;;-1.30;95.10;;;;;;2203381;65;20169;-33
2021/12/10 05:59:24;;;;;;;25.80;8.00;;;-1.30;95.10;;;;;;2203316;64;20082;-32
2021/12/10 06:01:50;;;;;;;19.03;10.13;;;-1.30;95.00;;;;;;2203480;65;20168;-37
2021/12/10 06:04:22;;;;;;;22.77;10.17;;;-1.30;94.90;;;;;;2203427;65;20116;-32
2021/12/10 06:06:49;;;;;;;26.23;8.73;;;-1.30;95.10;;;;;;2203485;65;20079;-32
2021/12/10 06:09:16;;;;;;;19.17;7.97;;;-1.30;95.10;;;;;;2204616;64;20133;-40
2021/12/10 06:11:42;;;;;;;19.03;7.73;;;-1.30;95.00;;;;;;2211167;64;20088;-38
2021/12/10 06:14:09;;;;;;;23.23;9.93;;;-1.20;95.10;;;;;;2212088;64;20104;-37
2021/12/10 06:16:36;;;;;;;23.47;9.40;;;-1.20;95.10;;;;;;2216090;64;20577;-34
2021/12/10 06:19:06;;;;;;;22.27;8.70;;;-1.10;94.90;;;;;;2219298;64;20130;-34
2021/12/10 06:21:33;;;;;;;18.07;8.70;;;-1.10;94.90;;;;;;2219230;64;20476;-41
2021/12/10 06:24:00;;;;;;;17.10;6.47;;;-1.10;94.90;;;;;;2216013;64;20174;-35
2021/12/10 06:26:27;;;;;;;26.83;9.30;;;-1.20;94.90;;;;;;2219203;64;20092;-33
2021/12/10 06:28:54;;;;;;;22.10;8.00;;;-1.20;94.90;;;;;;2216016;64;20108;-33
2021/12/10 06:31:21;;;;;;;20.07;9.87;;;-1.10;95.00;;;;;;2219081;64;20089;-33
2021/12/10 06:33:48;;;;;;;18.67;6.87;;;-1.20;94.80;;;;;;2216030;64;20146;-52
2021/12/10 06:36:16;;;;;;;21.43;9.27;;;-1.10;94.80;;;;;;2219161;64;20152;-33
2021/12/10 06:38:42;;;;;;;19.70;7.77;;;-1.10;94.50;;;;;;2215958;64;20085;-40
2021/12/10 06:41:09;;;;;;;22.53;9.93;;;-1.00;94.50;;;;;;2219062;64;20085;-32
2021/12/10 06:43:35;;;;;;;23.47;10.20;;;-1.10;94.60;;;;;;2215866;64;20091;-33
2021/12/10 06:46:04;;;;;;;23.33;9.47;;;-1.10;94.60;;;;;;2219120;64;20093;-32
2021/12/10 06:48:30;;;;;;;18.27;8.73;;;-1.10;94.60;;;;;;2219527;64;20530;-32
2021/12/10 06:51:00;;;;;;;24.60;9.93;;;-1.00;94.50;;;;;;2222993;64;20107;-33
2021/12/10 06:53:27;;;;;;;23.77;10.13;;;-1.10;94.40;;;;;;2219750;64;20111;-34
2021/12/10 06:55:54;;;;;;;21.53;9.20;;;-1.10;94.50;;;;;;2219869;64;20088;-33
2021/12/10 06:58:22;;;;;;;19.30;8.87;;;-1.00;94.40;;;;;;2219825;64;20148;-33
2021/12/10 07:00:58;;;;;;;19.10;7.17;;;-1.00;94.50;;;;;;2219769;64;20104;-33
2021/12/10 07:03:26;;;;;;;27.07;6.73;;;-1.00;94.50;;;;;;2223457;64;20076;-32
2021/12/10 07:05:53;;;;;;;26.17;10.77;;;-1.00;94.40;;;;;;2217007;64;20169;-32
2021/12/10 07:08:21;;;;;;;23.13;10.33;;;-1.00;94.30;;;;;;2220501;64;20107;-39
2021/12/10 07:10:48;;;;;;;27.20;10.00;;;-1.00;94.20;;;;;;2220389;64;20156;-32
2021/12/10 07:13:15;;;;;;;24.37;10.70;;;-0.90;94.10;;;;;;2220120;64;20538;-32
2021/12/10 07:15:43;;;;;;;25.70;8.20;;;-1.00;94.30;;;;;;2220282;64;20177;-33
2021/12/10 07:18:10;;;;;;;19.53;6.90;;;-0.90;94.20;;;;;;2223479;64;20480;-31
2021/12/10 07:20:37;;;;;;;21.97;10.00;;;-0.80;94.10;;;;;;2215884;64;20123;-32
2021/12/10 07:23:03;;;;;;;19.13;8.50;;;-0.80;93.90;;;;;;2216098;64;20587;-31
2021/12/10 07:25:30;;;;;;;26.30;11.23;;;-0.80;94.00;;;;;;2215761;64;20085;-34
2021/12/10 07:27:57;;;;;;;30.73;10.00;;;-0.80;94.00;;;;;;2216121;64;20092;-33
2021/12/10 07:30:25;;;;;;;26.97;9.67;;;-0.90;93.90;;;;;;2216025;64;20084;-31
2021/12/10 07:32:51;;;;;;;24.30;9.43;;;-0.80;93.80;;;;;;2215964;64;20608;-47
2021/12/10 07:35:18;;;;;;;26.23;11.03;;;-0.90;93.90;;;;;;2216144;64;20510;-31
2021/12/10 07:37:45;;;;;;;24.17;11.63;;;-0.80;93.70;;;;;;2216057;64;20099;-32
2021/12/10 07:40:15;;;;;;;22.13;8.90;;;-0.90;93.90;;;;;;2216189;64;20613;-32
2021/12/10 07:42:42;;;;;;;23.67;10.57;;;-0.80;93.70;;;;;;2216067;64;20081;-32
2021/12/10 07:45:09;;;;;;;25.63;8.77;;;-0.80;93.50;;;;;;2215837;64;20484;-31
2021/12/10 07:47:37;;;;;;;27.93;10.33;;;-0.70;93.40;;;;;;2215962;64;20616;-33
2021/12/10 07:50:05;;;;;;;24.57;11.80;;;-0.70;93.30;;;;;;2216115;64;20103;-35
2021/12/10 07:52:34;;;;;;;20.07;6.63;;;-0.70;93.20;;;;;;2215988;64;20155;-33
2021/12/10 07:55:04;;;;;;;32.60;9.70;;;-0.70;93.40;;;;;;2216118;64;20092;-31
2021/12/10 07:57:31;;;;;;;18.13;8.97;;;-0.70;93.10;;;;;;2215696;64;20104;-34
2021/12/10 07:59:58;;;;;;;28.80;11.67;;;-0.70;93.00;;;;;;2222837;64;20103;-34
2021/12/10 08:02:24;;;;;;;23.37;9.50;;;-0.80;93.10;;;;;;2222863;64;20100;-31
2021/12/10 08:04:51;;;;;;;22.67;8.03;;;-0.80;93.00;;;;;;2222763;64;20100;-31
2021/12/10 08:07:18;;;;;;;16.97;7.43;;;-0.70;92.90;;;;;;2222875;64;20097;-32
2021/12/10 08:09:45;;;;;;;21.37;9.87;;;-0.70;92.90;;;;;;2222744;64;20085;-33
2021/12/10 08:12:12;;;;;;;28.33;10.17;;;-0.60;92.70;;;;;;2216248;64;20231;-32
2021/12/10 08:14:38;;;;;;;24.27;9.90;;;-0.60;92.70;;;;;;2222822;64;20114;-32
2021/12/10 08:17:05;;;;;;;23.57;10.30;;;-0.70;92.80;;;;;;2215606;64;20093;-34
2021/12/10 08:19:31;;;;;;;32.57;11.03;;;-0.70;92.80;;;;;;2215848;64;20093;-33
2021/12/10 08:21:58;;;;;;;24.90;10.27;;;-0.80;92.70;;;;;;2215880;64;20089;-34
2021/12/10 08:24:25;;;;;;;20.33;9.97;;;-0.80;92.90;;;;;;2215723;64;20173;-34
2021/12/10 08:26:51;;;;;;;25.60;10.90;;;-0.70;92.90;;;;;;2215742;64;20152;-33
2021/12/10 08:29:20;;;;;;;16.23;7.80;;;-0.60;92.60;;;;;;2218846;64;20231;-32
2021/12/10 08:31:47;;;;;;;19.43;10.10;;;-0.60;92.40;;;;;;2215720;64;20175;-31
2021/12/10 08:34:13;;;;;;;16.27;7.60;;;-0.60;92.30;;;;;;2215904;64;20088;-31
2021/12/10 08:36:40;;;;;;;23.93;10.50;;;-0.50;92.30;;;;;;2215755;64;20095;-37
2021/12/10 08:39:08;;;;;;;30.17;9.60;;;-0.50;92.10;;;;;;2212478;64;20449;-32
2021/12/10 08:41:35;;;;;;;30.73;10.67;;;-0.50;92.10;;;;;;2215909;64;20107;-31
2021/12/10 08:44:02;;;;;;;17.80;8.43;;;-0.50;92.30;;;;;;2218848;64;20096;-32
2021/12/10 08:46:29;;;;;;;23.30;10.77;;;-0.40;92.10;;;;;;2215774;64;20230;-32
2021/12/10 08:48:57;;;;;;;20.43;8.93;;;-0.60;92.10;;;;;;2219614;64;20088;-51
2021/12/10 08:51:27;;;;;;;22.73;9.90;;;-0.50;92.20;;;;;;2223522;64;20096;-31
2021/12/10 08:53:54;;;;;;;26.47;9.03;;;-0.50;92.20;;;;;;2223422;64;20173;-34
2021/12/10 08:56:21;;;;;;;21.87;9.07;;;-0.40;91.90;;;;;;2216834;64;20136;-33
2021/12/10 08:58:49;;;;;;;21.17;10.13;;;-0.40;92.10;;;;;;2223180;64;20096;-32
2021/12/10 09:01:22;;;;;;;19.50;9.53;;;-0.50;92.20;;;;;;2219953;64;20355;-31
2021/12/10 09:03:51;;;;;;;22.77;10.33;;;-0.40;92.10;;;;;;2219909;64;20550;-32
2021/12/10 09:06:19;;;;;;;25.83;10.40;;;-0.40;92.00;;;;;;2223214;64;20571;-31
2021/12/10 09:08:45;;;;;;;20.53;9.40;;;-0.40;91.90;;;;;;2223168;64;20163;-32
2021/12/10 09:11:12;;;;;;;15.87;7.57;;;-0.40;91.90;;;;;;2223341;64;20115;-33
2021/12/10 09:13:39;;;;;;;19.67;9.07;;;-0.30;91.70;;;;;;2223258;64;20108;-32
2021/12/10 09:16:09;;;;;;;22.47;8.90;;;-0.40;91.40;;;;;;2223194;64;20107;-32
2021/12/10 09:18:39;;;;;;;25.80;7.90;;;-0.30;91.30;;;;;;2214827;64;20199;-34
2021/12/10 09:21:08;;;;;;;19.43;8.83;;;-0.20;91.40;;;;;;2214930;64;20095;-31
2021/12/10 09:23:34;;;;;;;20.30;9.57;;;-0.20;91.20;;;;;;2211698;64;20135;-31
2021/12/10 09:26:03;;;;;;;24.07;8.33;;;-0.30;91.20;;;;;;2211465;64;20169;-33
2021/12/10 09:28:29;;;;;;;25.67;11.03;;;-0.20;91.40;;;;;;2214886;64;20205;-32
2021/12/10 09:30:57;;;;;;;21.83;10.63;;;-0.10;91.30;;;;;;2211939;64;20077;-30
2021/12/10 09:33:24;;;;;;;25.40;9.80;;;-0.20;91.30;;;;;;2215117;64;20093;-32
2021/12/10 09:35:50;;;;;;;21.57;10.27;;;-0.40;91.50;;;;;;2214701;64;20112;-33
2021/12/10 09:38:19;;;;;;;19.47;9.13;;;-0.30;91.60;;;;;;2214936;64;20105;-33
2021/12/10 09:40:47;;;;;;;24.43;8.17;;;-0.30;91.60;;;;;;2215003;64;20115;-33
2021/12/10 09:43:14;;;;;;;24.03;9.53;;;-0.30;91.60;;;;;;2214732;64;20631;-33
2021/12/10 09:45:42;;;;;;;20.17;9.27;;;-0.40;91.70;;;;;;2211289;64;20093;-37
2021/12/10 09:48:10;;;;;;;18.63;8.77;;;-0.40;91.80;;;;;;2214767;64;20160;-32
2021/12/10 09:50:39;;;;;;;26.17;10.77;;;-0.40;91.90;;;;;;2219101;64;20088;-33
2021/12/10 09:53:06;;;;;;;27.90;9.13;;;-0.40;92.00;;;;;;2216692;64;20072;-33
2021/12/10 09:55:33;;;;;;;15.20;7.43;;;-0.30;91.70;;;;;;2219991;64;20174;-32
2021/12/10 09:57:59;;;;;;;30.60;10.40;;;-0.40;91.60;;;;;;2219971;64;20549;-44
2021/12/10 10:00:33;;;;;;;23.40;10.13;;;-0.40;91.70;;;;;;2219785;64;20096;-31
2021/12/10 10:03:00;;;;;;;9.97;4.43;;;-0.40;91.70;;;;;;2219827;64;20100;-47
2021/12/10 10:05:27;;;;;;;19.10;8.43;;;-0.30;91.70;;;;;;2219439;64;20464;-32
2021/12/10 10:07:58;;;;;;;17.40;8.07;;;-0.30;91.50;;;;;;2219652;64;20100;-33
2021/12/10 10:10:25;;;;;;;17.90;7.90;;;-0.30;91.50;;;;;;2219649;64;20464;-32
2021/12/10 10:12:53;;;;;;;16.23;7.47;;;-0.40;91.50;;;;;;2207497;64;20112;-34
2021/12/10 10:15:25;;;;;;;16.17;7.83;;;-0.40;91.60;;;;;;2207736;64;20729;-34
2021/12/10 10:17:53;;;;;;;20.27;9.77;;;-0.30;91.30;;;;;;2207666;64;20117;-32
2021/12/10 10:20:20;;;;;;;12.93;5.87;;;-0.30;91.40;;;;;;2207720;64;20085;-32
2021/12/10 10:22:46;;;;;;;19.67;7.97;;;-0.30;91.40;;;;;;2207595;64;20081;-35
2021/12/10 10:25:13;;;;;;;16.53;8.13;;;-0.20;91.40;;;;;;2207780;64;20082;-33
2021/12/10 10:27:41;;;;;;;17.90;8.00;;;-0.30;91.20;;;;;;2210937;64;20085;-32
2021/12/10 10:30:25;;;;;;;15.77;8.73;;;-0.30;91.40;;;;;;2207878;64;20093;-34
2021/12/10 10:32:53;;;;;;;14.30;5.60;;;-0.30;91.20;;;;;;2207871;64;20171;-36
2021/12/10 10:35:28;;;;;;;25.33;5.73;;;-0.20;91.30;;;;;;2208000;64;20077;-34
2021/12/10 10:37:54;;;;;;;;;;;-0.20;91.30;;;;;;2205389;64;20090;-35
2021/12/10 10:40:24;;;;;;;17.17;7.40;;;-0.20;91.10;;;;;;2205267;64;19965;-33
2021/12/10 10:42:51;;;;;;;20.77;8.37;;;-0.30;91.20;;;;;;2208503;64;20574;-32
2021/12/10 10:45:21;;;;;;;13.37;7.13;;;-0.40;91.20;;;;;;2220382;64;20096;-33
2021/12/10 10:47:48;;;;;;;16.93;7.63;;;-0.30;91.20;;;;;;2220458;64;20096;-34
2021/12/10 10:50:25;;;;;;;12.50;7.00;;;-0.30;91.10;;;;;;2220605;64;20080;-40
2021/12/10 10:52:54;;;;;;;15.97;7.43;;;-0.40;91.20;;;;;;2220467;64;20104;-38
2021/12/10 10:55:24;;;;;;;17.83;8.50;;;-0.30;91.30;;;;;;2223740;64;20103;-33
2021/12/10 10:57:54;;;;;;;22.57;9.20;;;-0.30;91.20;;;;;;2223684;64;20144;-32
2021/12/10 11:00:29;;;;;;;10.33;5.83;;;-0.40;91.40;;;;;;2223679;64;20092;-33
2021/12/10 11:03:03;;;;;;;12.88;6.20;;;-0.40;91.50;;;;;;2212208;64;20570;-33
2021/12/10 11:05:30;;;;;;;12.43;6.27;;;-0.30;91.50;;;;;;2212190;64;20596;-32
2021/12/10 11:07:59;;;;;;;11.80;7.53;;;-0.40;91.30;;;;;;2212290;64;20153;-33
2021/12/10 11:10:29;;;;;;;22.90;7.20;;;-0.40;91.30;;;;;;2204415;64;20112;-36
2021/12/10 11:13:08;;;;;;;15.60;7.23;;;-0.40;91.50;;;;;;2204440;64;20560;-33
2021/12/10 11:15:34;;;;;;;6.90;3.13;;;-0.30;91.60;;;;;;2204603;64;20102;-35
2021/12/10 11:18:01;;;;;;;12.90;5.77;;;-0.30;91.70;;;;;;2204659;64;20082;-32
2021/12/10 11:20:33;;;;;;;11.23;6.33;;;-0.30;91.70;;;;;;2203598;65;20117;-33
2021/12/10 11:23:06;;;;;;;12.00;7.00;;;-0.40;91.60;;;;;;2203940;65;20086;-36
2021/12/10 11:25:44;;;;;;;15.07;8.10;;;-0.40;91.70;;;;;;2203835;65;20630;-32
2021/12/10 11:28:26;;;;;;;16.80;7.70;;;-0.40;91.80;;;;;;2203929;65;20118;-32
2021/12/10 11:31:03;;;;;;;13.17;7.03;;;-0.40;91.50;;;;;;2203562;65;20486;-33
2021/12/10 11:33:39;;;;;;;11.83;6.63;;;-0.50;91.70;;;;;;2200791;65;20109;-34
2021/12/10 11:36:17;;;;;;;12.73;6.37;;;-0.50;91.70;;;;;;2203621;65;20129;-36
2021/12/10 11:38:46;;;;;;;17.13;6.57;;;-0.50;91.70;;;;;;2203831;65;20101;-33
2021/12/10 11:41:15;;;;;;;11.67;6.27;;;-0.50;92.00;;;;;;2205833;64;20120;-33
2021/12/10 11:43:44;;;;;;;14.57;6.37;;;-0.50;92.20;;;;;;2211434;64;20101;-36
2021/12/10 11:49:24;;;;;;;10.17;5.23;;;-0.50;92.20;;;;;;2207456;64;20082;-32
2021/12/10 11:52:00;;;;;;;14.53;6.23;;;-0.50;92.40;;;;;;2207423;64;20090;-33
2021/12/10 11:54:36;;;;;;;14.13;7.13;;;-0.50;92.40;;;;;;2207847;64;20113;-31
2021/12/10 11:57:08;;;;;;;13.50;6.70;;;-0.50;92.40;;;;;;2207603;64;20100;-33
2021/12/10 11:59:37;;;;;;;12.77;5.13;;;-0.50;92.50;;;;;;2204541;64;20098;-33
2021/12/10 12:02:15;;;;;;;8.93;5.03;;;-0.50;92.60;;;;;;2210394;64;20108;-34
2021/12/10 12:04:44;;;;;;;13.00;2.90;;;-0.50;92.50;;;;;;2216278;64;20112;-44
2021/12/10 12:07:22;;;;;;;11.10;5.23;;;-0.50;92.80;;;;;;2219672;64;20139;-33
2021/12/10 12:10:12;;;;;;;13.93;7.07;;;-0.50;92.60;;;;;;2216362;64;20131;-32
2021/12/10 12:13:10;;;;;;;14.57;8.20;;;-0.50;92.70;;;;;;2219634;64;20081;-32
2021/12/10 12:15:47;;;;;;;12.17;6.10;;;-0.50;92.80;;;;;;2215503;64;20119;-38
2021/12/10 12:18:26;;;;;;;9.93;4.13;;;-0.60;93.00;;;;;;2216639;64;20093;-37
2021/12/10 12:27:17;;;;;;;14.73;7.33;;;-0.50;93.10;;;;;;2211220;64;20548;-37
2021/12/10 12:29:49;;;;;;;11.87;6.27;;;-0.60;93.20;;;;;;2207946;64;20156;-37
2021/12/10 12:32:37;;;;;;;10.07;3.83;;;-0.60;93.20;;;;;;2211183;64;20572;-36
2021/12/10 12:35:24;;;;;;;12.53;6.77;;;-0.60;93.10;;;;;;2207984;64;20093;-33
2021/12/10 12:37:51;;;;;;;14.77;6.70;;;-0.60;93.10;;;;;;2208000;64;20519;-35
2021/12/10 12:40:18;;;;;;;10.43;4.17;;;-0.60;93.10;;;;;;2211437;64;20082;-33
2021/12/10 12:42:46;;;;;;;11.77;5.53;;;-0.60;93.10;;;;;;2211349;64;20089;-37
2021/12/10 12:45:17;;;;;;;19.03;7.50;;;-0.60;93.10;;;;;;2211369;64;20097;-34
2021/12/10 12:47:46;;;;;;;9.77;3.67;;;-0.60;93.00;;;;;;2205795;64;20101;-34
2021/12/10 12:50:16;;;;;;;11.53;6.33;;;-0.60;93.00;;;;;;2201111;64;20078;-35
2021/12/10 12:52:54;;;;;;;11.27;5.07;;;-0.60;93.00;;;;;;2207024;64;20590;-44
2021/12/10 12:55:35;;;;;;;12.33;5.50;;;-0.60;93.00;;;;;;2208099;64;20112;-37
2021/12/10 12:58:11;;;;;;;11.77;5.97;;;-0.60;93.00;;;;;;2208144;64;20086;-33
2021/12/10 13:00:43;;;;;;;17.93;6.33;;;-0.60;92.90;;;;;;2208022;64;20648;-36
2021/12/10 13:03:14;;;;;;;13.00;6.67;;;-0.60;92.70;;;;;;2207997;64;20115;-52
2021/12/10 13:06:04;;;;;;;12.57;6.17;;;-0.60;92.50;;;;;;2207988;64;20161;-37